createdAt,value
2019-02-26T00:00:42.359Z,12.35
2019-02-26T00:03:08.397Z,12.07
2019-02-26T00:05:36.940Z,11.45
2019-02-26T00:08:05.514Z,12.98
2019-02-26T00:10:36.370Z,11.53
2019-02-26T00:13:04.436Z,12.23
2019-02-26T00:15:35.521Z,11.78
2019-02-26T00:18:07.493Z,12.60
2019-02-26T00:20:37.357Z,11.65
2019-02-26T00:23:05.746Z,11.30
2019-02-26T00:25:34.296Z,12.40
2019-02-26T00:28:02.912Z,13.03
2019-02-26T00:30:33.298Z,13.53
2019-02-26T00:33:02.863Z,12.03
2019-02-26T00:35:31.870Z,13.00
2019-02-26T00:38:00.396Z,13.80
2019-02-26T00:40:29.001Z,14.03
2019-02-26T00:43:00.169Z,11.03
2019-02-26T00:45:29.481Z,13.72
2019-02-26T00:47:58.049Z,12.95
2019-02-26T00:50:28.134Z,12.90
2019-02-26T00:52:59.148Z,14.15
2019-02-26T00:55:29.380Z,12.05
2019-02-26T00:57:59.157Z,11.70
2019-02-26T01:00:28.600Z,12.03
2019-02-26T01:02:57.604Z,11.45
2019-02-26T01:05:26.215Z,11.10
2019-02-26T01:07:54.801Z,10.53
2019-02-26T01:10:23.647Z,12.70
2019-02-26T01:12:52.281Z,11.78
2019-02-26T01:15:21.450Z,13.25
2019-02-26T01:17:49.996Z,12.40
2019-02-26T01:20:21.844Z,12.03
2019-02-26T01:22:49.230Z,11.60
2019-02-26T01:25:18.592Z,12.15
2019-02-26T01:27:48.337Z,11.88
2019-02-26T01:30:20.790Z,11.83
2019-02-26T01:32:48.100Z,11.95
2019-02-26T01:35:16.764Z,12.07
2019-02-26T01:37:45.584Z,10.43
2019-02-26T01:40:18.287Z,12.33
2019-02-26T01:42:49.815Z,13.00
2019-02-26T01:45:15.038Z,13.88
2019-02-26T01:47:47.632Z,13.00
2019-02-26T01:50:16.096Z,13.55
2019-02-26T01:52:44.487Z,13.35
2019-02-26T01:55:13.014Z,12.82
2019-02-26T01:57:43.618Z,13.32
2019-02-26T02:00:19.387Z,12.43
2019-02-26T02:02:47.838Z,12.23
2019-02-26T02:05:16.373Z,11.70
2019-02-26T02:07:47.217Z,13.20
2019-02-26T02:10:15.933Z,12.25
2019-02-26T02:12:44.493Z,12.28
2019-02-26T02:15:17.920Z,12.85
2019-02-26T02:17:45.197Z,12.78
2019-02-26T02:20:16.445Z,13.38
2019-02-26T02:22:45.823Z,11.73
2019-02-26T02:25:14.405Z,11.60
2019-02-26T02:27:42.855Z,11.25
2019-02-26T02:30:22.081Z,11.93
2019-02-26T02:35:17.845Z,11.70
2019-02-26T02:37:44.664Z,12.85
2019-02-26T02:40:13.830Z,13.15
2019-02-26T02:42:43.157Z,14.15
2019-02-26T02:45:16.684Z,12.50
2019-02-26T02:47:43.400Z,12.33
2019-02-26T02:50:15.289Z,12.85
2019-02-26T02:52:44.580Z,13.83
2019-02-26T02:55:15.996Z,14.00
2019-02-26T02:57:43.311Z,13.15
2019-02-26T03:00:13.429Z,13.10
2019-02-26T03:02:43.166Z,11.70
2019-02-26T03:05:13.277Z,12.00
2019-02-26T03:07:42.440Z,12.98
2019-02-26T03:10:13.506Z,13.70
2019-02-26T03:12:46.995Z,12.13
2019-02-26T03:15:14.478Z,12.33
2019-02-26T03:17:42.944Z,11.78
2019-02-26T03:20:12.342Z,11.73
2019-02-26T03:22:45.137Z,11.43
2019-02-26T03:25:21.086Z,11.20
2019-02-26T03:27:48.136Z,11.45
2019-02-26T03:30:32.147Z,10.25
2019-02-26T03:32:58.743Z,10.50
2019-02-26T03:35:23.782Z,11.20
2019-02-26T03:37:55.626Z,12.15
2019-02-26T03:40:24.222Z,11.88
2019-02-26T03:42:53.054Z,13.00
2019-02-26T03:45:24.676Z,13.20
2019-02-26T03:47:51.909Z,11.85
2019-02-26T03:50:20.373Z,12.13
2019-02-26T03:52:48.816Z,12.30
2019-02-26T03:55:18.773Z,11.40
2019-02-26T03:57:50.615Z,11.90
2019-02-26T04:00:19.945Z,11.95
2019-02-26T04:02:51.386Z,12.47
2019-02-26T04:05:18.886Z,13.40
2019-02-26T04:07:51.706Z,13.03
2019-02-26T04:10:17.741Z,12.13
2019-02-26T04:12:48.774Z,12.78
2019-02-26T04:15:24.184Z,13.60
2019-02-26T04:17:51.232Z,13.35
2019-02-26T04:20:19.763Z,12.05
2019-02-26T04:22:50.102Z,11.40
2019-02-26T04:25:36.273Z,13.93
2019-02-26T04:28:13.407Z,12.55
2019-02-26T04:30:49.775Z,11.97
2019-02-26T04:33:45.774Z,12.30
2019-02-26T04:36:26.491Z,12.15
2019-02-26T04:39:22.512Z,11.57
2019-02-26T04:42:11.986Z,12.33
2019-02-26T04:45:09.190Z,10.05
2019-02-26T04:47:58.315Z,12.73
2019-02-26T04:50:28.632Z,12.20
2019-02-26T04:52:59.093Z,13.20
2019-02-26T04:55:28.990Z,11.93
2019-02-26T04:57:56.785Z,12.80
2019-02-26T05:00:29.342Z,15.43
2019-02-26T05:02:55.467Z,13.35
2019-02-26T05:05:25.846Z,12.65
2019-02-26T05:07:54.119Z,11.68
2019-02-26T05:10:24.279Z,14.05
2019-02-26T05:12:54.112Z,12.40
2019-02-26T05:15:23.961Z,12.33
2019-02-26T05:17:53.178Z,13.53
2019-02-26T05:20:21.685Z,12.88
2019-02-26T05:22:52.052Z,11.65
2019-02-26T05:25:21.061Z,13.55
2019-02-26T05:27:50.952Z,14.43
2019-02-26T05:30:22.300Z,12.95
2019-02-26T05:32:51.954Z,13.35
2019-02-26T05:35:22.676Z,12.65
2019-02-26T05:37:50.332Z,13.45
2019-02-26T05:40:21.981Z,11.95
2019-02-26T05:42:49.183Z,12.25
2019-02-26T05:45:17.648Z,13.25
2019-02-26T05:47:50.186Z,13.10
2019-02-26T05:50:16.782Z,11.93
2019-02-26T05:52:49.797Z,13.18
2019-02-26T05:55:17.553Z,13.38
2019-02-26T05:57:45.821Z,12.33
2019-02-26T06:00:19.804Z,12.63
2019-02-26T06:02:50.392Z,12.80
2019-02-26T06:05:18.405Z,12.88
2019-02-26T06:07:46.214Z,12.93
2019-02-26T06:10:14.758Z,20.50
2019-02-26T06:12:46.016Z,14.50
2019-02-26T06:15:13.311Z,14.20
2019-02-26T06:17:45.226Z,13.32
2019-02-26T06:20:17.786Z,13.62
2019-02-26T06:22:46.372Z,14.00
2019-02-26T06:25:20.629Z,14.68
2019-02-26T06:27:45.128Z,14.25
2019-02-26T06:30:14.736Z,15.20
2019-02-26T06:32:44.719Z,17.92
2019-02-26T06:35:16.449Z,16.48
2019-02-26T06:37:46.094Z,14.35
2019-02-26T06:40:17.722Z,16.70
2019-02-26T06:42:46.323Z,15.68
2019-02-26T06:45:16.483Z,15.08
2019-02-26T06:47:47.929Z,15.23
2019-02-26T06:50:18.427Z,15.00
2019-02-26T06:52:47.688Z,15.13
2019-02-26T06:55:16.225Z,16.82
2019-02-26T06:57:47.092Z,15.32
2019-02-26T07:00:19.725Z,18.60
2019-02-26T07:05:16.149Z,13.50
2019-02-26T07:07:44.782Z,14.13
2019-02-26T07:10:18.293Z,14.70
2019-02-26T07:12:45.511Z,14.07
2019-02-26T07:15:15.877Z,13.78
2019-02-26T07:17:45.955Z,14.45
2019-02-26T07:20:14.500Z,13.85
2019-02-26T07:22:44.039Z,13.13
2019-02-26T07:25:15.948Z,12.07
2019-02-26T07:27:43.540Z,13.50
2019-02-26T07:30:12.545Z,12.13
2019-02-26T07:32:43.047Z,12.95
2019-02-26T07:35:13.554Z,12.33
2019-02-26T07:37:41.498Z,13.53
2019-02-26T07:40:15.664Z,15.30
2019-02-26T07:42:46.064Z,21.02
2019-02-26T07:45:15.226Z,16.73
2019-02-26T07:47:45.228Z,11.88
2019-02-26T07:50:14.709Z,11.43
2019-02-26T07:52:44.373Z,12.65
2019-02-26T07:55:15.377Z,12.23
2019-02-26T07:57:45.448Z,11.22
2019-02-26T08:00:22.508Z,11.05
2019-02-26T08:02:52.003Z,10.78
2019-02-26T08:05:23.326Z,11.43
2019-02-26T08:07:53.862Z,10.45
2019-02-26T08:10:21.670Z,9.73
2019-02-26T08:12:50.365Z,10.75
2019-02-26T08:15:18.951Z,10.25
2019-02-26T08:17:50.259Z,8.30
2019-02-26T08:20:18.902Z,10.38
2019-02-26T08:22:49.542Z,8.15
2019-02-26T08:25:17.803Z,8.55
2019-02-26T08:27:46.407Z,7.92
2019-02-26T08:30:18.757Z,10.25
2019-02-26T08:32:51.084Z,9.38
2019-02-26T08:35:18.854Z,8.55
2019-02-26T08:37:47.074Z,8.85
2019-02-26T08:40:17.285Z,9.43
2019-02-26T08:42:45.848Z,9.10
2019-02-26T08:45:17.833Z,9.05
2019-02-26T08:47:46.958Z,8.83
2019-02-26T08:50:15.642Z,7.00
2019-02-26T08:52:46.874Z,9.78
2019-02-26T08:55:17.776Z,10.18
2019-02-26T08:57:45.466Z,10.45
2019-02-26T09:00:16.741Z,9.78
2019-02-26T09:02:46.112Z,9.98
2019-02-26T09:05:15.840Z,8.03
2019-02-26T09:07:45.566Z,9.15
2019-02-26T09:10:20.471Z,9.80
2019-02-26T09:15:21.392Z,8.25
2019-02-26T09:17:52.871Z,9.63
2019-02-26T09:20:21.865Z,9.03
2019-02-26T09:22:51.440Z,11.48
2019-02-26T09:25:23.195Z,9.00
2019-02-26T09:27:50.883Z,8.63
2019-02-26T09:30:19.867Z,9.43
2019-02-26T09:32:48.478Z,11.43
2019-02-26T09:35:25.248Z,9.73
2019-02-26T09:37:53.291Z,11.22
2019-02-26T09:40:26.425Z,8.00
2019-02-26T09:45:28.753Z,6.30
2019-02-26T09:48:01.018Z,7.45
2019-02-26T09:52:59.059Z,6.75
2019-02-26T09:55:27.429Z,6.65
2019-02-26T09:57:56.101Z,6.17
2019-02-26T10:00:26.926Z,5.78
2019-02-26T10:02:55.019Z,6.22
2019-02-26T10:05:23.548Z,5.90
2019-02-26T10:07:54.383Z,6.15
2019-02-26T10:10:25.389Z,5.87
2019-02-26T10:12:56.240Z,6.15
2019-02-26T10:15:23.884Z,5.95
2019-02-26T10:17:52.460Z,6.90
2019-02-26T10:20:29.671Z,6.12
2019-02-26T10:23:00.443Z,6.60
2019-02-26T10:25:31.073Z,5.22
2019-02-26T10:28:03.167Z,7.37
2019-02-26T10:30:31.457Z,6.35
2019-02-26T10:33:01.756Z,7.55
2019-02-26T10:35:33.375Z,6.80
2019-02-26T10:38:02.818Z,6.78
2019-02-26T10:40:35.082Z,6.62
2019-02-26T10:43:00.224Z,6.42
2019-02-26T10:45:36.038Z,8.93
2019-02-26T10:48:02.366Z,9.00
2019-02-26T10:50:31.965Z,6.97
2019-02-26T10:53:07.117Z,7.05
2019-02-26T10:55:38.153Z,5.72
2019-02-26T10:58:06.770Z,5.75
2019-02-26T11:00:35.293Z,6.70
2019-02-26T11:03:02.556Z,4.65
2019-02-26T11:05:31.106Z,4.33
2019-02-26T11:08:02.207Z,4.40
2019-02-26T11:10:30.074Z,4.62
2019-02-26T11:12:59.631Z,5.20
2019-02-26T11:15:31.056Z,5.97
2019-02-26T11:17:58.864Z,6.58
2019-02-26T11:20:30.506Z,4.10
2019-02-26T11:22:57.764Z,4.55
2019-02-26T11:25:27.422Z,3.98
2019-02-26T11:27:56.407Z,4.25
2019-02-26T11:30:32.132Z,4.20
2019-02-26T11:33:04.760Z,4.20
2019-02-26T11:35:30.313Z,6.42
2019-02-26T11:37:58.900Z,5.95
2019-02-26T11:40:30.540Z,4.15
2019-02-26T11:43:00.118Z,3.72
2019-02-26T11:45:28.855Z,5.72
2019-02-26T11:47:58.078Z,6.10
2019-02-26T11:50:28.422Z,4.85
2019-02-26T11:52:57.423Z,6.30
2019-02-26T11:55:37.953Z,6.30
2019-02-26T11:58:10.017Z,3.67
2019-02-26T12:00:51.036Z,3.10
2019-02-26T12:05:49.312Z,2.42
2019-02-26T12:08:22.252Z,2.47
2019-02-26T12:10:52.186Z,2.27
2019-02-26T12:13:22.224Z,2.37
2019-02-26T12:15:50.257Z,3.83
2019-02-26T12:18:19.933Z,5.00
2019-02-26T12:20:49.186Z,2.85
2019-02-26T12:23:21.990Z,2.80
2019-02-26T12:25:49.882Z,3.70
2019-02-26T12:28:18.243Z,5.12
2019-02-26T12:30:46.879Z,5.33
2019-02-26T12:33:15.519Z,5.22
2019-02-26T12:35:44.193Z,5.25
2019-02-26T12:38:18.867Z,5.92
2019-02-26T12:40:44.731Z,7.65
2019-02-26T12:43:16.297Z,8.25
2019-02-26T12:45:43.562Z,7.08
2019-02-26T12:48:15.610Z,7.12
2019-02-26T12:50:42.333Z,8.68
2019-02-26T12:53:12.625Z,7.72
2019-02-26T12:55:42.294Z,7.58
2019-02-26T12:58:14.534Z,6.95
2019-02-26T13:00:42.302Z,7.00
2019-02-26T13:03:12.748Z,7.20
2019-02-26T13:05:42.385Z,10.35
2019-02-26T13:08:13.458Z,9.73
2019-02-26T13:13:12.194Z,6.45
2019-02-26T13:15:40.788Z,5.62
2019-02-26T13:18:09.489Z,6.37
2019-02-26T13:20:38.011Z,5.80
2019-02-26T13:25:36.856Z,4.75
2019-02-26T13:28:05.295Z,4.40
2019-02-26T13:30:33.886Z,5.50
2019-02-26T13:33:05.321Z,4.60
2019-02-26T13:35:32.712Z,3.85
2019-02-26T13:38:05.117Z,2.87
2019-02-26T13:40:38.476Z,4.50
2019-02-26T13:45:32.275Z,4.92
2019-02-26T13:48:01.562Z,3.35
2019-02-26T13:50:32.794Z,3.55
2019-02-26T13:53:01.381Z,3.30
2019-02-26T13:55:29.962Z,3.50
2019-02-26T13:57:58.535Z,4.28
2019-02-26T14:00:27.198Z,4.75
2019-02-26T14:02:55.895Z,4.47
2019-02-26T14:05:24.414Z,2.70
2019-02-26T14:07:52.854Z,2.75
2019-02-26T14:10:25.457Z,3.05
2019-02-26T14:12:54.078Z,3.30
2019-02-26T14:15:25.302Z,2.65
2019-02-26T14:17:54.244Z,2.40
2019-02-26T14:20:22.717Z,2.80
2019-02-26T14:22:51.338Z,2.25
2019-02-26T14:25:20.322Z,2.35
2019-02-26T14:27:48.912Z,2.52
2019-02-26T14:30:18.399Z,2.50
2019-02-26T14:32:48.135Z,2.47
2019-02-26T14:35:16.676Z,3.25
2019-02-26T14:37:45.178Z,2.45
2019-02-26T14:40:21.699Z,2.52
2019-02-26T14:42:50.241Z,6.40
2019-02-26T14:45:20.474Z,3.45
2019-02-26T14:47:49.049Z,2.25
2019-02-26T14:50:18.618Z,2.77
2019-02-26T14:52:47.068Z,2.87
2019-02-26T14:55:16.305Z,2.00
2019-02-26T14:57:44.902Z,2.42
2019-02-26T15:00:19.732Z,2.00
2019-02-26T15:02:48.502Z,3.08
2019-02-26T15:05:17.037Z,2.00
2019-02-26T15:07:45.679Z,2.50
2019-02-26T15:10:14.350Z,3.10
2019-02-26T15:12:42.968Z,2.58
2019-02-26T15:15:16.022Z,2.65
2019-02-26T15:17:44.538Z,2.08
2019-02-26T15:20:18.293Z,3.08
2019-02-26T15:22:47.026Z,2.77
2019-02-26T15:25:24.621Z,2.42
2019-02-26T15:27:53.212Z,3.98
2019-02-26T15:30:22.509Z,2.40
2019-02-26T15:32:51.026Z,2.55
2019-02-26T15:35:19.599Z,2.75
2019-02-26T15:37:48.102Z,4.83
2019-02-26T15:40:20.815Z,5.12
2019-02-26T15:42:52.364Z,3.37
2019-02-26T15:45:29.916Z,2.30
2019-02-26T15:47:58.470Z,2.65
2019-02-26T15:50:26.964Z,3.22
2019-02-26T15:52:55.410Z,3.15
2019-02-26T15:55:28.970Z,3.62
2019-02-26T15:58:03.099Z,2.70
2019-02-26T16:00:28.163Z,2.00
2019-02-26T16:02:59.348Z,1.75
2019-02-26T16:05:38.542Z,1.90
2019-02-26T16:08:07.414Z,1.52
2019-02-26T16:10:35.928Z,1.75
2019-02-26T16:13:04.518Z,1.65
2019-02-26T16:15:34.878Z,1.85
2019-02-26T16:18:03.406Z,2.02
2019-02-26T16:20:32.223Z,2.22
2019-02-26T16:23:00.979Z,1.67
2019-02-26T16:25:29.495Z,2.50
2019-02-26T16:27:58.015Z,2.20
2019-02-26T16:30:29.542Z,2.12
2019-02-26T16:32:58.075Z,2.20
2019-02-26T16:35:26.598Z,1.98
2019-02-26T16:37:55.170Z,2.27
2019-02-26T16:40:23.777Z,2.30
2019-02-26T16:42:52.286Z,1.92
2019-02-26T16:45:25.718Z,2.08
2019-02-26T16:47:54.245Z,2.45
2019-02-26T16:50:24.044Z,2.50
2019-02-26T16:52:52.534Z,2.15
2019-02-26T16:55:21.287Z,2.72
2019-02-26T16:57:49.734Z,2.80
2019-02-26T17:00:23.332Z,2.70
2019-02-26T17:02:51.850Z,2.87
2019-02-26T17:05:20.305Z,2.87
2019-02-26T17:07:48.861Z,3.00
2019-02-26T17:10:18.846Z,2.72
2019-02-26T17:12:52.014Z,14.35
2019-02-26T17:15:25.642Z,3.60
2019-02-26T17:17:53.217Z,4.17
2019-02-26T17:20:22.511Z,3.72
2019-02-26T17:22:51.742Z,3.70
2019-02-26T17:25:20.321Z,3.80
2019-02-26T17:27:48.850Z,3.50
2019-02-26T17:30:18.301Z,5.60
2019-02-26T17:32:48.479Z,3.90
2019-02-26T17:35:17.054Z,4.25
2019-02-26T17:37:45.969Z,4.00
2019-02-26T17:40:17.085Z,4.45
2019-02-26T17:42:45.781Z,4.78
2019-02-26T17:45:20.486Z,4.42
2019-02-26T17:47:50.695Z,4.97
2019-02-26T17:50:22.243Z,4.75
2019-02-26T17:52:52.380Z,5.00
2019-02-26T17:55:25.163Z,5.33
2019-02-26T17:57:53.753Z,5.37
2019-02-26T18:00:25.096Z,5.62
2019-02-26T18:02:53.623Z,6.87
2019-02-26T18:05:22.071Z,6.45
2019-02-26T18:07:53.579Z,6.90
2019-02-26T18:10:24.735Z,8.65
2019-02-26T18:12:54.012Z,10.30
2019-02-26T18:15:22.931Z,23.75
2019-02-26T18:17:51.618Z,14.43
2019-02-26T18:20:21.067Z,16.52
2019-02-26T18:22:49.700Z,12.68
2019-02-26T18:25:20.797Z,13.40
2019-02-26T18:27:51.784Z,9.93
2019-02-26T18:30:26.090Z,9.78
2019-02-26T18:32:57.365Z,9.65
2019-02-26T18:35:29.023Z,9.93
2019-02-26T18:37:57.573Z,14.90
2019-02-26T18:40:28.289Z,17.12
2019-02-26T18:42:56.427Z,22.22
2019-02-26T18:45:30.079Z,33.90
2019-02-26T18:48:02.253Z,34.53
2019-02-26T18:50:34.703Z,52.45
2019-02-26T18:53:04.867Z,27.13
2019-02-26T18:55:36.683Z,68.75
2019-02-26T18:58:06.036Z,34.75
2019-02-26T19:00:35.655Z,31.07
2019-02-26T19:03:08.722Z,19.73
2019-02-26T19:05:34.927Z,18.40
2019-02-26T19:08:05.841Z,29.25
2019-02-26T19:10:35.123Z,15.25
2019-02-26T19:13:03.990Z,20.85
2019-02-26T19:15:34.288Z,13.68
2019-02-26T19:18:26.539Z,16.27
2019-02-26T19:21:04.758Z,15.38
2019-02-26T19:23:41.540Z,11.00
2019-02-26T19:26:13.753Z,10.30
2019-02-26T19:28:44.809Z,13.25
2019-02-26T19:31:20.743Z,10.00
2019-02-26T19:33:49.458Z,12.43
2019-02-26T19:36:21.039Z,11.48
2019-02-26T19:38:51.523Z,11.50
2019-02-26T19:41:28.165Z,10.93
2019-02-26T19:44:06.519Z,11.00
2019-02-26T19:46:37.928Z,14.68
2019-02-26T19:49:13.844Z,14.80
2019-02-26T19:51:43.227Z,17.57
2019-02-26T19:54:15.171Z,16.93
2019-02-26T19:56:46.465Z,15.20
2019-02-26T19:59:17.420Z,22.37
2019-02-26T20:01:56.645Z,50.83
2019-02-26T20:04:38.519Z,17.40
2019-02-26T20:07:07.160Z,14.63
2019-02-26T20:09:41.563Z,14.43
2019-02-26T20:12:10.766Z,13.38
2019-02-26T20:14:44.109Z,15.50
2019-02-26T20:17:19.915Z,14.95
2019-02-26T20:19:48.691Z,21.25
2019-02-26T20:22:22.435Z,18.32
2019-02-26T20:25:02.091Z,17.35
2019-02-26T20:27:37.260Z,15.25
2019-02-26T20:30:12.105Z,14.00
2019-02-26T20:32:50.748Z,13.22
2019-02-26T20:35:20.872Z,18.90
2019-02-26T20:37:58.623Z,18.45
2019-02-26T20:40:25.725Z,17.00
2019-02-26T20:42:54.326Z,18.52
2019-02-26T20:45:23.018Z,13.25
2019-02-26T20:47:53.482Z,12.25
2019-02-26T20:50:23.896Z,16.62
2019-02-26T20:52:52.165Z,17.15
2019-02-26T20:55:22.956Z,15.13
2019-02-26T20:57:51.498Z,12.50
2019-02-26T21:00:25.874Z,12.20
2019-02-26T21:02:54.770Z,13.88
2019-02-26T21:05:24.984Z,15.00
2019-02-26T21:07:58.737Z,12.47
2019-02-26T21:10:26.510Z,12.43
2019-02-26T21:12:55.242Z,14.28
2019-02-26T21:15:34.328Z,12.82
2019-02-26T21:17:58.890Z,13.72
2019-02-26T21:20:29.061Z,28.30
2019-02-26T21:22:59.281Z,19.73
2019-02-26T21:25:27.900Z,53.42
2019-02-26T21:28:00.783Z,44.75
2019-02-26T21:30:26.658Z,75.62
2019-02-26T21:32:58.191Z,22.82
2019-02-26T21:35:25.648Z,34.45
2019-02-26T21:37:54.367Z,46.20
2019-02-26T21:40:23.002Z,19.25
2019-02-26T21:42:51.674Z,21.17
2019-02-26T21:45:20.219Z,18.17
2019-02-26T21:47:48.785Z,14.50
2019-02-26T21:50:17.311Z,11.90
2019-02-26T21:52:59.112Z,16.40
2019-02-26T21:55:16.834Z,27.75
2019-02-26T21:57:47.113Z,16.05
2019-02-26T22:00:20.450Z,16.50
2019-02-26T22:02:52.444Z,14.23
2019-02-26T22:05:21.332Z,23.32
2019-02-26T22:07:52.306Z,18.65
2019-02-26T22:10:24.953Z,21.82
2019-02-26T22:12:56.642Z,23.90
2019-02-26T22:15:27.036Z,31.30
2019-02-26T22:18:01.663Z,23.10
2019-02-26T22:20:36.091Z,41.65
2019-02-26T22:23:01.132Z,18.82
2019-02-26T22:25:29.910Z,25.65
2019-02-26T22:27:58.417Z,18.85
2019-02-26T22:30:26.896Z,32.48
2019-02-26T22:32:55.478Z,15.20
2019-02-26T22:35:25.930Z,21.05
2019-02-26T22:37:54.171Z,18.92
2019-02-26T22:40:22.906Z,14.43
2019-02-26T22:42:51.648Z,14.40
2019-02-26T22:45:22.205Z,13.10
2019-02-26T22:47:50.418Z,13.75
2019-02-26T22:50:18.957Z,13.65
2019-02-26T22:52:47.485Z,14.40
2019-02-26T22:55:17.580Z,15.38
2019-02-26T22:57:46.332Z,15.65
2019-02-26T23:00:51.082Z,13.88
2019-02-26T23:03:19.555Z,13.83
2019-02-26T23:05:48.243Z,14.45
2019-02-26T23:08:16.833Z,19.70
2019-02-26T23:10:45.439Z,27.75
2019-02-26T23:13:14.127Z,28.35
2019-02-26T23:15:45.352Z,16.12
2019-02-26T23:18:13.098Z,13.90
2019-02-26T23:20:42.861Z,15.50
2019-02-26T23:23:12.112Z,15.23
2019-02-26T23:25:40.829Z,14.68
2019-02-26T23:28:09.435Z,15.08
2019-02-26T23:30:37.965Z,14.70
2019-02-26T23:33:07.434Z,15.28
2019-02-26T23:35:36.203Z,14.78
2019-02-26T23:38:08.044Z,14.90
2019-02-26T23:40:35.047Z,15.68
2019-02-26T23:43:03.628Z,15.35
2019-02-26T23:45:32.247Z,14.83
2019-02-26T23:48:00.922Z,15.15
2019-02-26T23:50:29.509Z,14.68
2019-02-26T23:53:00.777Z,16.17
2019-02-26T23:55:28.366Z,16.12
2019-02-26T23:57:57.988Z,15.63
